»·PEaware :: UPS270 KRNO-KBOI

UPS270 :: KRNO-KBOI

FLIGHT INFORMATION

Flight Status: Arrived
Operator:
United Parcel Service
More flights by this operator :: More flights under this callsign
Pilot: Luc P. (3613)
Aircraft: BOEING 767-300
(B763)
More flights by this aircraft type
Origin: KRNO Reno/Tahoe Intl
United States
Destination: KBOI Boise Air Terminal/Gowen
United States
More flights between these airports :: More routes between these airports
Route: +PVINE3 PYGOW TWF BROPH SPUUD3
File this flight plan on PilotEdge
Remarks: RMK / SIMBRIEF
Altitude:
(Current/Filed)
35,000ft
Speed:
(Current/Filed)
455kts
Departed: 19-Apr-20 07:02 PM
Arrived: 19-Apr-20 08:05 PM
Distance/Time
Traveled:
291nm/1:03
Distance/Time
To Go:
Arrived

Flight Plot

Page will automatically refresh every two minutes.


Map Options




Map Legend


Flown Route
Filed Route
Departure Airport
Arrival Airport
Navaid (VOR, NDB)
Fix

Horizontal Profiles

Position Reports

Time Latitude Longitude Heading Altitude Ground
Speed
19-Apr-20 18:30 39.510147 -119.772340 268 4421ft 0kts
19-Apr-20 18:31 39.510147 -119.772340 268 4421ft 0kts
19-Apr-20 18:32 39.510147 -119.772340 268 4421ft 0kts
19-Apr-20 18:33 39.510147 -119.772340 268 4421ft 0kts
19-Apr-20 18:34 39.510147 -119.772340 268 4421ft 0kts
19-Apr-20 18:35 39.510147 -119.772340 268 4421ft 0kts
19-Apr-20 18:36 39.510147 -119.772340 268 4421ft 0kts
19-Apr-20 18:37 39.510147 -119.772340 268 4421ft 0kts
19-Apr-20 18:38 39.510147 -119.772340 268 4421ft 0kts
19-Apr-20 18:39 39.510147 -119.772340 268 4421ft 0kts
19-Apr-20 18:40 39.510147 -119.772340 268 4421ft 0kts
19-Apr-20 18:41 39.510147 -119.772340 268 4421ft 0kts
19-Apr-20 18:42 39.510147 -119.772340 268 4421ft 0kts
19-Apr-20 18:43 39.510147 -119.772340 268 4421ft 0kts
19-Apr-20 18:44 39.510147 -119.772340 268 4421ft 0kts
19-Apr-20 18:46 39.510147 -119.772340 268 4421ft 0kts
19-Apr-20 18:47 39.510147 -119.772340 268 4421ft 0kts
19-Apr-20 18:48 39.510147 -119.772340 268 4421ft 0kts
19-Apr-20 18:49 39.510148 -119.772247 269 4421ft 2kts
19-Apr-20 18:50 39.510183 -119.771519 218 4421ft 1kts
19-Apr-20 18:51 39.510336 -119.771473 172 4421ft 0kts
19-Apr-20 18:52 39.510336 -119.771473 172 4421ft 0kts
19-Apr-20 18:53 39.510336 -119.771473 172 4421ft 0kts
19-Apr-20 18:54 39.510196 -119.771468 180 4421ft 3kts
19-Apr-20 18:55 39.508241 -119.771500 179 4418ft 8kts
19-Apr-20 18:56 39.504943 -119.771499 180 4416ft 14kts
19-Apr-20 18:57 39.500144 -119.771520 179 4414ft 19kts
19-Apr-20 18:58 39.494105 -119.771535 180 4414ft 23kts
19-Apr-20 18:59 39.487494 -119.771547 180 4417ft 21kts
19-Apr-20 19:00 39.483778 -119.770634 91 4424ft 8kts
19-Apr-20 19:01 39.485595 -119.769306 359 4420ft 16kts
19-Apr-20 19:02 39.514408 -119.768954 0 4642ft 184kts
19-Apr-20 19:03 39.568623 -119.767153 0 6312ft 221kts
19-Apr-20 19:03 39.620560 -119.741978 37 7399ft 271kts
19-Apr-20 19:05 39.692333 -119.668995 37 10147ft 285kts
19-Apr-20 19:06 39.760041 -119.597168 47 11203ft 350kts
19-Apr-20 19:06 39.816335 -119.518604 45 13617ft 357kts
19-Apr-20 19:07 39.885361 -119.421966 44 16340ft 365kts
19-Apr-20 19:09 39.966747 -119.307213 44 19082ft 385kts
19-Apr-20 19:09 40.025860 -119.219840 51 19071ft 376kts
19-Apr-20 19:10 40.089241 -119.106545 50 20704ft 388kts
19-Apr-20 19:11 40.154346 -118.989541 50 23023ft 404kts
19-Apr-20 19:12 40.222190 -118.867150 49 25344ft 421kts
19-Apr-20 19:13 40.292170 -118.740384 49 27661ft 438kts
19-Apr-20 19:14 40.364759 -118.608348 48 29801ft 455kts
19-Apr-20 19:15 40.439501 -118.471801 48 32058ft 461kts
19-Apr-20 19:16 40.512862 -118.337188 49 34067ft 458kts
19-Apr-20 19:17 40.585821 -118.202640 49 35032ft 436kts
19-Apr-20 19:18 40.656886 -118.071272 49 35058ft 448kts
19-Apr-20 19:19 40.729602 -117.936102 49 35054ft 452kts
19-Apr-20 19:20 40.802091 -117.800772 49 35054ft 450kts
19-Apr-20 19:21 40.873909 -117.666140 50 35055ft 449kts
19-Apr-20 19:22 40.945408 -117.531497 50 35053ft 447kts
19-Apr-20 19:23 41.016581 -117.396895 50 35054ft 447kts
19-Apr-20 19:24 41.086557 -117.263995 51 35048ft 446kts
19-Apr-20 19:25 41.156950 -117.129706 51 35056ft 445kts
19-Apr-20 19:26 41.227553 -116.994436 51 35061ft 445kts
19-Apr-20 19:27 41.297923 -116.859016 51 35065ft 444kts
19-Apr-20 19:28 41.368513 -116.722567 51 35056ft 443kts
19-Apr-20 19:29 41.438798 -116.586093 51 35048ft 441kts
19-Apr-20 19:30 41.508460 -116.450229 51 35047ft 439kts
19-Apr-20 19:31 41.576698 -116.316566 52 35044ft 437kts
19-Apr-20 19:32 41.645214 -116.181744 53 35044ft 435kts
19-Apr-20 19:33 41.713712 -116.046369 53 35044ft 434kts
19-Apr-20 19:34 41.782069 -115.910683 53 35045ft 434kts
19-Apr-20 19:35 41.850238 -115.774745 53 35046ft 434kts
19-Apr-20 19:36 41.917737 -115.639512 53 35042ft 436kts
19-Apr-20 19:37 41.985337 -115.503541 53 35034ft 437kts
19-Apr-20 19:38 42.052237 -115.368331 53 35025ft 432kts
19-Apr-20 19:39 42.117945 -115.234933 53 35020ft 434kts
19-Apr-20 19:40 42.184777 -115.098658 54 34993ft 435kts
19-Apr-20 19:41 42.251299 -114.962395 54 34006ft 434kts
19-Apr-20 19:42 42.317893 -114.825382 54 33025ft 438kts
19-Apr-20 19:43 42.392831 -114.695632 36 31199ft 443kts
19-Apr-20 19:44 42.506558 -114.645253 358 28349ft 430kts
19-Apr-20 19:45 42.613668 -114.703695 318 26047ft 421kts
19-Apr-20 19:46 42.688412 -114.822370 310 24231ft 403kts
19-Apr-20 19:47 42.761872 -114.934173 314 22605ft 393kts
19-Apr-20 19:48 42.835375 -115.039547 314 20894ft 380kts
19-Apr-20 19:49 42.907687 -115.143758 313 19289ft 372kts
19-Apr-20 19:50 42.978275 -115.246113 313 17444ft 366kts
19-Apr-20 19:51 43.046034 -115.344755 313 15628ft 347kts
19-Apr-20 19:52 43.110261 -115.438562 313 13809ft 329kts
19-Apr-20 19:53 43.171370 -115.527985 314 11990ft 311kts
19-Apr-20 19:54 43.229325 -115.612912 314 10223ft 296kts
19-Apr-20 19:55 43.283759 -115.691227 317 9889ft 283kts
19-Apr-20 19:56 43.340702 -115.764119 317 8619ft 267kts
19-Apr-20 19:57 43.392112 -115.833680 311 7797ft 252kts
19-Apr-20 19:58 43.436016 -115.902778 311 7013ft 224kts
19-Apr-20 19:59 43.475187 -115.964247 308 6287ft 204kts
19-Apr-20 20:00 43.499972 -116.032124 296 5592ft 198kts
19-Apr-20 20:01 43.521935 -116.095922 295 4583ft 165kts
19-Apr-20 20:02 43.540622 -116.150326 295 3744ft 157kts
19-Apr-20 20:03 43.558733 -116.203288 296 2913ft 151kts
19-Apr-20 20:04 43.569541 -116.234967 295 2838ft 16kts
19-Apr-20 20:05 43.570811 -116.236379 21 2835ft 0kts
19-Apr-20 20:06 43.571014 -116.236462 320 2835ft 4kts
19-Apr-20 20:07 43.570861 -116.239250 258 2831ft 8kts
19-Apr-20 20:08 43.569776 -116.242539 212 2826ft 9kts
19-Apr-20 20:09 43.567808 -116.242710 180 2826ft 5kts
19-Apr-20 20:10 43.567234 -116.243621 271 2824ft 2kts
19-Apr-20 20:11 43.567239 -116.243805 272 2824ft 0kts
19-Apr-20 20:12 43.567239 -116.243805 272 2824ft 0kts
19-Apr-20 20:13 43.567239 -116.243805 272 2824ft 0kts
19-Apr-20 20:14 43.567239 -116.243805 272 2824ft 0kts
19-Apr-20 20:15 43.567239 -116.243805 272 2824ft 0kts
19-Apr-20 20:16 43.567239 -116.243805 272 2824ft 0kts
19-Apr-20 20:17 43.567239 -116.243805 272 2824ft 0kts
19-Apr-20 20:18 43.567239 -116.243805 272 2824ft 0kts

Navigation Log

Ident Type
Flight plan parsing failed, navigation log unavailable